Time;durP1;ratioP1;P1;durP2;ratioP2;P2;SDS_P1;SDS_P2;PMS_P1;PMS_P2;Temp;Humidity;BMP_temperature;BMP_pressure;BME280_temperature;BME280_humidity;BME280_pressure;Samples;Min_cycle;Max_cycle;Signal;HPM_P1;HPM_P2
2022/05/12 00:00:50;;;;;;;7.32;5.00;;;;;;;11.80;63.92;95899.63;5026732;28;20033;-75
2022/05/12 00:03:17;;;;;;;8.75;5.03;;;;;;;11.78;63.97;95904.31;5027417;28;20030;-75
2022/05/12 00:05:43;;;;;;;9.73;4.80;;;;;;;11.72;64.02;95906.69;5027298;28;20496;-75
2022/05/12 00:08:09;;;;;;;6.38;4.57;;;;;;;11.68;63.95;95905.34;5027250;28;20029;-75
2022/05/12 00:10:34;;;;;;;6.70;4.88;;;;;;;11.61;64.31;95912.41;5027120;28;20060;-75
2022/05/12 00:12:59;;;;;;;8.23;5.00;;;;;;;11.56;64.33;95910.25;5025551;28;20032;-75
2022/05/12 00:15:27;;;;;;;11.02;4.57;;;;;;;11.56;63.25;95912.13;5027133;28;20492;-75
2022/05/12 00:17:53;;;;;;;6.72;4.40;;;;;;;11.58;63.40;95908.22;5025138;28;20041;-74
2022/05/12 00:20:19;;;;;;;6.82;4.95;;;;;;;11.58;63.37;95907.38;5025839;28;20079;-75
2022/05/12 00:22:45;;;;;;;7.85;4.95;;;;;;;11.56;63.85;95909.44;5025583;28;20036;-75
2022/05/12 00:25:12;;;;;;;7.22;4.70;;;;;;;11.47;64.39;95901.38;5025599;28;20026;-75
2022/05/12 00:27:37;;;;;;;4.97;4.40;;;;;;;11.55;63.68;95902.34;5008825;28;20057;-75
2022/05/12 00:30:05;;;;;;;5.72;4.68;;;;;;;11.55;63.97;95907.72;5026829;28;20036;-75
2022/05/12 00:32:30;;;;;;;6.70;4.75;;;;;;;11.59;63.67;95903.72;5026135;28;20028;-74
2022/05/12 00:34:56;;;;;;;7.15;4.47;;;;;;;11.56;63.81;95904.06;5025091;28;20447;-74
2022/05/12 00:37:21;;;;;;;4.95;4.30;;;;;;;11.53;63.88;95893.63;5026794;28;20068;-75
2022/05/12 00:39:47;;;;;;;7.63;4.68;;;;;;;11.43;64.28;95900.03;5026477;28;20447;-75
2022/05/12 00:42:12;;;;;;;6.85;4.38;;;;;;;11.36;64.98;95897.22;5026603;28;20456;-75
2022/05/12 00:44:37;;;;;;;6.35;4.78;;;;;;;11.36;64.59;95891.84;5026543;28;20025;-75
2022/05/12 00:47:03;;;;;;;6.53;4.22;;;;;;;11.38;64.17;95899.72;5026295;28;20083;-75
2022/05/12 00:49:34;;;;;;;8.48;4.82;;;;;;;11.40;63.69;95894.19;5025101;28;20025;-75
2022/05/12 00:52:18;;;;;;;6.97;5.20;;;;;;;11.43;63.65;95888.47;5008823;28;20506;-74
2022/05/12 00:54:49;;;;;;;7.20;5.55;;;;;;;11.41;63.33;95899.38;5025346;28;20025;-75
2022/05/12 00:57:17;;;;;;;6.75;5.03;;;;;;;11.41;63.37;95898.53;5026189;28;20100;-75
2022/05/12 00:59:42;;;;;;;7.35;5.47;;;;;;;11.34;63.22;95899.22;5008871;28;20033;-75
2022/05/12 01:02:10;;;;;;;10.15;6.47;;;;;;;11.28;64.10;95901.75;5024471;28;20107;-75
2022/05/12 01:04:36;;;;;;;6.97;5.03;;;;;;;11.17;64.14;95906.44;5025470;28;20508;-75
2022/05/12 01:07:01;;;;;;;7.45;5.22;;;;;;;11.12;64.90;95908.81;5025038;28;20563;-74
2022/05/12 01:09:27;;;;;;;5.60;4.70;;;;;;;11.12;64.95;95915.00;5024603;28;20077;-75
2022/05/12 01:11:52;;;;;;;7.72;4.65;;;;;;;11.12;64.92;95912.31;5025049;28;20037;-75
2022/05/12 01:14:18;;;;;;;6.63;5.10;;;;;;;11.13;65.10;95907.78;5025546;28;20029;-75
2022/05/12 01:16:48;;;;;;;8.65;4.85;;;;;;;11.09;64.72;95909.97;5024791;28;20021;-75
2022/05/12 01:19:16;;;;;;;7.40;4.93;;;;;;;11.01;63.90;95912.66;5024431;28;20025;-75
2022/05/12 01:21:42;;;;;;;7.88;4.95;;;;;;;10.89;64.14;95912.16;5024953;28;20053;-75
2022/05/12 01:24:07;;;;;;;12.82;6.88;;;;;;;10.86;64.09;95907.13;5024755;28;20130;-75
2022/05/12 01:26:33;;;;;;;6.57;4.60;;;;;;;10.85;64.11;95908.16;5007888;28;20130;-75
2022/05/12 01:28:59;;;;;;;7.43;5.10;;;;;;;10.81;63.97;95909.47;5025759;28;20045;-74
2022/05/12 01:31:24;;;;;;;6.57;5.18;;;;;;;10.77;63.95;95908.94;5023903;28;20034;-74
2022/05/12 01:33:51;;;;;;;8.73;5.07;;;;;;;10.73;63.52;95916.53;5024738;28;20029;-75
2022/05/12 01:36:20;;;;;;;7.40;5.55;;;;;;;10.67;64.10;95911.81;5023984;28;20152;-74
2022/05/12 01:38:45;;;;;;;8.82;5.03;;;;;;;10.64;64.33;95909.44;5025014;28;20053;-75
2022/05/12 01:41:11;;;;;;;7.25;4.90;;;;;;;10.62;63.48;95912.28;5025906;28;20029;-75
2022/05/12 01:43:36;;;;;;;7.03;4.90;;;;;;;10.58;63.71;95912.78;5027261;28;20072;-74
2022/05/12 01:46:02;;;;;;;7.25;4.68;;;;;;;10.57;64.08;95911.13;5030000;28;20025;-75
2022/05/12 01:48:27;;;;;;;8.57;4.90;;;;;;;10.58;64.48;95912.78;5028036;28;20037;-74
2022/05/12 01:50:53;;;;;;;7.47;5.55;;;;;;;10.39;65.59;95920.09;5029993;28;20156;-74
2022/05/12 01:53:18;;;;;;;9.05;5.80;;;;;;;10.38;65.95;95919.25;5029334;28;20026;-75
2022/05/12 01:55:47;;;;;;;6.78;5.20;;;;;;;10.38;66.10;95913.91;5028689;28;20492;-74
2022/05/12 01:58:12;;;;;;;8.35;5.05;;;;;;;10.29;66.16;95922.06;4996134;28;20484;-74
2022/05/12 02:00:37;;;;;;;5.53;4.45;;;;;;;10.30;66.25;95931.81;5028251;28;20033;-75
2022/05/12 02:03:03;;;;;;;11.05;5.07;;;;;;;10.22;65.17;95932.63;5028397;28;20022;-74
2022/05/12 02:05:32;;;;;;;7.80;5.18;;;;;;;10.22;65.50;95927.28;5011656;28;20029;-73
2022/05/12 02:07:58;;;;;;;8.55;4.80;;;;;;;10.23;65.38;95935.16;4995748;28;20041;-74
2022/05/12 02:10:29;;;;;;;6.90;5.10;;;;;;;10.25;65.53;95930.44;5027572;28;20546;-75
2022/05/12 02:12:55;;;;;;;8.45;4.90;;;;;;;10.25;65.36;95930.44;5028372;28;20032;-75
2022/05/12 02:15:20;;;;;;;7.65;4.95;;;;;;;10.11;66.06;95929.22;5011450;28;20026;-75
2022/05/12 02:17:46;;;;;;;10.73;5.13;;;;;;;10.11;66.02;95928.38;5027980;28;20033;-75
2022/05/12 02:20:12;;;;;;;10.32;5.05;;;;;;;10.08;65.17;95929.56;5027923;28;20096;-74
2022/05/12 02:22:38;;;;;;;7.10;5.07;;;;;;;10.08;65.57;95934.06;5027979;28;20098;-75
2022/05/12 02:25:04;;;;;;;8.25;5.18;;;;;;;10.06;65.66;95931.53;5028056;28;20026;-75
2022/05/12 02:27:30;;;;;;;6.25;4.90;;;;;;;10.06;65.94;95934.22;5027030;28;20387;-74
2022/05/12 02:29:55;;;;;;;6.43;4.60;;;;;;;10.06;65.62;95936.09;5028039;28;20478;-75
2022/05/12 02:32:20;;;;;;;9.75;5.28;;;;;;;10.04;65.67;95938.94;5027270;28;20415;-74
2022/05/12 02:34:46;;;;;;;8.65;5.30;;;;;;;10.01;66.85;95936.56;5011177;28;20028;-74
2022/05/12 02:37:11;;;;;;;11.93;5.22;;;;;;;9.97;66.49;95938.72;5028840;28;20022;-75
2022/05/12 02:39:40;;;;;;;7.40;5.25;;;;;;;9.96;66.73;95944.25;5029108;28;20022;-75
2022/05/12 02:42:06;;;;;;;6.90;5.07;;;;;;;9.98;65.89;95940.41;5027671;28;20040;-74
2022/05/12 02:44:32;;;;;;;9.05;5.85;;;;;;;9.92;66.28;95930.31;5027571;28;20026;-75
2022/05/12 02:46:57;;;;;;;10.98;6.15;;;;;;;9.92;66.30;95938.38;5010963;28;20041;-75
2022/05/12 02:49:23;;;;;;;11.65;5.50;;;;;;;9.93;66.42;95940.03;5026968;28;20116;-75
2022/05/12 02:51:48;;;;;;;6.80;5.63;;;;;;;9.90;66.42;95943.03;5027364;28;20479;-76
2022/05/12 02:54:15;;;;;;;10.32;5.22;;;;;;;9.92;66.23;95941.03;5027169;28;20087;-76
2022/05/12 02:56:40;;;;;;;6.72;5.20;;;;;;;9.93;66.01;95942.72;4994017;28;20024;-74
2022/05/12 02:59:06;;;;;;;11.60;6.20;;;;;;;9.96;65.82;95946.94;5028692;28;20030;-76
2022/05/12 03:01:32;;;;;;;9.13;5.00;;;;;;;9.96;66.30;95950.44;5010789;28;20063;-75
2022/05/12 03:03:57;;;;;;;7.70;5.80;;;;;;;9.93;66.07;95952.63;5027078;28;20037;-74
2022/05/12 03:06:23;;;;;;;8.63;6.05;;;;;;;9.91;66.23;95955.44;5027125;28;20025;-74
2022/05/12 03:08:48;;;;;;;6.82;5.45;;;;;;;9.88;66.13;95953.09;5010499;28;20037;-74
2022/05/12 03:11:13;;;;;;;7.40;5.57;;;;;;;9.86;65.94;95947.03;5010258;28;20064;-74
2022/05/12 03:13:39;;;;;;;10.82;5.10;;;;;;;9.88;66.00;95950.41;5028493;28;20029;-76
2022/05/12 03:16:04;;;;;;;7.43;5.60;;;;;;;9.81;66.08;95954.72;5027533;28;20162;-76
2022/05/12 03:18:30;;;;;;;6.35;5.13;;;;;;;9.83;65.88;95963.44;5027019;28;20021;-76
2022/05/12 03:20:55;;;;;;;9.80;5.57;;;;;;;9.86;65.67;95963.13;5028084;28;20075;-74
2022/05/12 03:23:22;;;;;;;8.52;5.47;;;;;;;9.83;65.96;95968.81;5026724;28;20059;-74
2022/05/12 03:25:51;;;;;;;11.15;5.63;;;;;;;9.85;66.06;95975.66;5028040;28;20029;-75
2022/05/12 03:28:17;;;;;;;11.50;5.78;;;;;;;9.85;65.89;95972.16;5010050;28;20066;-75
2022/05/12 03:30:43;;;;;;;12.43;5.50;;;;;;;9.82;65.18;95973.31;5026838;28;20045;-75
2022/05/12 03:33:09;;;;;;;9.38;5.25;;;;;;;9.76;65.35;95980.16;5027386;28;20025;-77
2022/05/12 03:35:36;;;;;;;11.02;5.80;;;;;;;9.77;65.64;95979.16;5026896;28;20114;-76
2022/05/12 03:38:02;;;;;;;9.60;5.38;;;;;;;9.74;65.92;95983.97;5026418;28;20026;-76
2022/05/12 03:40:27;;;;;;;11.15;6.10;;;;;;;9.72;65.36;95984.13;5026740;28;20029;-75
2022/05/12 03:42:53;;;;;;;11.38;6.28;;;;;;;9.76;64.97;95982.84;5027880;28;20025;-76
2022/05/12 03:45:21;;;;;;;7.85;5.50;;;;;;;9.74;65.33;95987.50;5027504;28;20335;-76
2022/05/12 03:47:48;;;;;;;8.20;6.32;;;;;;;9.73;65.63;95987.66;5026598;28;20109;-74
2022/05/12 03:50:16;;;;;;;9.02;5.97;;;;;;;9.75;65.11;95988.34;5025668;28;20033;-74
2022/05/12 03:52:42;;;;;;;10.15;6.70;;;;;;;9.77;64.89;95995.22;5010668;28;20504;-75
2022/05/12 03:55:08;;;;;;;12.55;6.03;;;;;;;9.76;65.05;95992.69;5025824;28;20558;-75
2022/05/12 03:57:34;;;;;;;13.10;6.25;;;;;;;9.79;65.14;95988.84;5009996;28;20021;-74
2022/05/12 04:00:00;;;;;;;10.43;6.32;;;;;;;9.82;64.82;95993.91;5026016;28;20057;-75
2022/05/12 04:02:25;;;;;;;9.80;6.05;;;;;;;9.82;65.25;95993.91;5025845;28;20034;-74
2022/05/12 04:04:51;;;;;;;10.90;6.32;;;;;;;9.84;65.41;95998.13;5009861;28;20041;-75
2022/05/12 04:07:18;;;;;;;10.73;5.50;;;;;;;9.89;65.11;96003.00;4991496;28;20582;-74
2022/05/12 04:09:43;;;;;;;11.48;5.75;;;;;;;9.98;65.41;96002.03;5027492;28;20018;-75
2022/05/12 04:12:09;;;;;;;12.05;6.57;;;;;;;10.06;65.18;96005.78;5025465;28;20435;-75
2022/05/12 04:14:36;;;;;;;9.77;6.20;;;;;;;10.23;64.95;96007.53;5026420;28;20072;-75
2022/05/12 04:17:01;;;;;;;7.35;5.45;;;;;;;10.42;64.72;96012.78;5025774;28;20049;-76
2022/05/12 04:19:28;;;;;;;10.30;5.93;;;;;;;10.62;64.01;96002.66;4992900;28;20036;-74
2022/05/12 04:21:53;;;;;;;11.02;6.10;;;;;;;10.90;63.78;96012.31;5025846;28;20451;-75
2022/05/12 04:24:19;;;;;;;10.90;5.88;;;;;;;11.12;63.96;96005.44;5026344;28;20518;-75
2022/05/12 04:26:44;;;;;;;9.30;5.75;;;;;;;11.31;63.43;96004.28;5009248;28;20056;-75
2022/05/12 04:29:11;;;;;;;11.95;6.05;;;;;;;11.56;62.79;96023.06;5024747;28;20073;-74
2022/05/12 04:31:37;;;;;;;12.10;6.03;;;;;;;11.77;62.38;96012.81;5027030;28;20075;-77
2022/05/12 04:36:46;;;;;;;8.98;5.43;;;;;;;12.23;61.18;96021.16;5025904;28;20454;-74
2022/05/12 04:39:12;;;;;;;10.45;5.90;;;;;;;12.41;60.65;96022.78;5008893;28;20483;-76
2022/05/12 04:41:37;;;;;;;7.35;5.93;;;;;;;12.60;60.03;96021.53;5026499;28;20056;-76
2022/05/12 04:44:04;;;;;;;7.30;5.82;;;;;;;12.84;59.62;96024.25;5009286;28;20052;-75
2022/05/12 04:46:30;;;;;;;11.80;6.90;;;;;;;13.06;58.83;96021.75;5024704;28;20737;-77
2022/05/12 04:48:56;;;;;;;12.52;8.02;;;;;;;13.25;58.70;96019.63;5026670;28;20388;-75
2022/05/12 04:51:22;;;;;;;10.77;6.38;;;;;;;13.32;57.90;96016.03;5008433;28;20040;-75
2022/05/12 04:53:47;;;;;;;10.20;6.32;;;;;;;13.51;58.24;96018.47;5009348;28;20029;-75
2022/05/12 04:56:13;;;;;;;10.88;6.20;;;;;;;13.64;57.96;96021.34;5008691;28;20033;-76
2022/05/12 04:58:38;;;;;;;12.63;6.10;;;;;;;13.87;57.65;96017.78;5008640;28;20034;-75
2022/05/12 05:01:04;;;;;;;8.13;6.25;;;;;;;14.07;56.84;96028.88;5025348;28;20061;-75
2022/05/12 05:03:30;;;;;;;10.48;6.18;;;;;;;14.16;56.26;96026.09;5025727;28;20022;-76
2022/05/12 05:05:55;;;;;;;10.35;6.50;;;;;;;13.95;56.46;96033.88;5026489;28;20021;-75
2022/05/12 05:08:21;;;;;;;8.23;5.78;;;;;;;14.16;56.40;96026.94;5024574;28;20432;-75
2022/05/12 05:10:47;;;;;;;11.98;5.82;;;;;;;14.32;56.38;96036.72;5008779;28;20030;-75
2022/05/12 05:13:13;;;;;;;6.82;4.70;;;;;;;14.41;55.14;96028.53;5026360;28;20021;-75
2022/05/12 05:15:38;;;;;;;9.32;5.30;;;;;;;14.48;55.15;96031.31;5026227;28;20034;-76
2022/05/12 05:18:03;;;;;;;9.40;6.93;;;;;;;14.44;55.37;96028.97;5024532;28;20436;-76
2022/05/12 05:20:30;;;;;;;9.23;6.30;;;;;;;14.57;55.93;96031.00;5025964;28;20079;-75
2022/05/12 05:22:55;;;;;;;9.00;5.85;;;;;;;14.80;55.07;96038.19;5025096;28;20028;-75
2022/05/12 05:25:21;;;;;;;8.48;5.35;;;;;;;14.98;54.41;96038.81;4991939;28;20022;-75
2022/05/12 05:27:47;;;;;;;8.70;6.30;;;;;;;15.06;54.64;96035.97;5024632;28;20083;-75
2022/05/12 05:30:17;;;;;;;9.27;5.72;;;;;;;15.07;54.16;96025.00;5024207;28;20046;-76
2022/05/12 05:32:42;;;;;;;9.30;6.05;;;;;;;15.18;54.64;96028.22;5024748;28;20037;-77
2022/05/12 05:35:08;;;;;;;9.05;5.90;;;;;;;15.37;53.44;96029.47;5025828;28;20032;-75
2022/05/12 05:37:34;;;;;;;11.52;6.68;;;;;;;15.44;53.38;96029.53;5024476;28;20035;-76
2022/05/12 05:39:59;;;;;;;10.20;6.45;;;;;;;15.27;54.61;96037.88;5024809;28;20018;-76
2022/05/12 05:42:25;;;;;;;12.77;6.43;;;;;;;15.44;54.44;96033.06;5025240;28;20033;-75
2022/05/12 05:44:50;;;;;;;10.18;5.90;;;;;;;15.69;53.06;96029.97;5024693;28;20024;-75
2022/05/12 05:47:16;;;;;;;11.55;6.70;;;;;;;15.85;53.55;96027.19;5025450;28;20095;-76
2022/05/12 05:49:41;;;;;;;11.52;6.82;;;;;;;15.91;52.96;96039.94;5025758;28;20404;-77
2022/05/12 05:54:51;;;;;;;11.88;7.35;;;;;;;15.56;54.32;96041.50;5024463;28;20121;-79
2022/05/12 05:57:24;;;;;;;10.27;7.00;;;;;;;15.56;53.84;96032.53;5008062;28;20030;-75
2022/05/12 05:59:51;;;;;;;10.27;6.68;;;;;;;15.57;54.99;96039.63;4991471;28;20032;-75
2022/05/12 06:02:16;;;;;;;10.18;6.60;;;;;;;15.75;54.33;96038.34;5025805;28;20029;-76
2022/05/12 06:04:41;;;;;;;12.15;7.35;;;;;;;15.97;53.85;96041.00;5025259;28;20029;-77
2022/05/12 06:07:07;;;;;;;9.75;6.85;;;;;;;16.19;53.05;96033.69;5025687;28;20447;-76
2022/05/12 06:09:33;;;;;;;13.10;7.90;;;;;;;16.47;52.64;96035.53;5007888;28;20504;-76
2022/05/12 06:11:58;;;;;;;16.98;8.60;;;;;;;16.48;52.14;96036.34;5025934;28;20033;-76
2022/05/12 06:14:24;;;;;;;13.63;7.72;;;;;;;16.64;52.70;96029.78;5025717;28;20483;-75
2022/05/12 06:16:50;;;;;;;12.05;7.28;;;;;;;16.91;51.75;96040.75;5023467;28;20029;-76
2022/05/12 06:19:17;;;;;;;13.32;8.00;;;;;;;17.08;52.02;96029.53;5025661;28;20056;-75
2022/05/12 06:21:43;;;;;;;16.02;7.70;;;;;;;17.14;51.08;96029.59;5024933;28;20025;-76
2022/05/12 06:24:08;;;;;;;18.50;7.55;;;;;;;17.42;50.86;96028.63;5025709;28;20032;-75
2022/05/12 06:26:35;;;;;;;17.17;8.48;;;;;;;17.63;50.34;96026.78;5025217;28;20018;-77
2022/05/12 06:29:01;;;;;;;9.82;6.00;;;;;;;17.69;50.07;96016.97;5007451;28;20045;-75
2022/05/12 06:31:29;;;;;;;7.78;6.60;;;;;;;17.92;49.53;96019.28;5028020;28;20496;-75
2022/05/12 06:33:55;;;;;;;10.65;6.30;;;;;;;18.02;49.26;96026.16;5028566;28;20033;-76
2022/05/12 06:36:21;;;;;;;19.10;7.82;;;;;;;18.05;48.56;96023.03;5029118;28;20030;-75
2022/05/12 06:38:47;;;;;;;10.50;6.18;;;;;;;18.14;47.94;96021.78;5028391;28;20034;-76
2022/05/12 06:41:13;;;;;;;8.30;6.20;;;;;;;18.31;48.41;96018.63;5027903;28;20403;-76
2022/05/12 06:43:39;;;;;;;7.35;6.10;;;;;;;18.55;47.25;96024.41;5028598;28;20025;-76
2022/05/12 06:46:05;;;;;;;8.00;6.18;;;;;;;18.66;48.11;96017.50;5028945;28;20459;-76
2022/05/12 06:48:30;;;;;;;12.65;6.30;;;;;;;18.74;46.72;96025.41;5028851;28;20064;-77
2022/05/12 06:50:56;;;;;;;9.27;5.72;;;;;;;18.85;46.85;96015.75;5031582;28;20104;-76
2022/05/12 06:53:22;;;;;;;8.15;5.72;;;;;;;18.97;46.56;96012.34;5036808;28;20459;-78
2022/05/12 06:55:47;;;;;;;9.13;5.82;;;;;;;18.96;46.37;96013.41;5036745;28;20017;-76
2022/05/12 06:58:17;;;;;;;8.98;5.78;;;;;;;19.12;46.74;96015.66;5035995;28;20017;-75
2022/05/12 07:00:42;;;;;;;9.27;6.22;;;;;;;19.29;46.31;96009.72;5035882;28;20029;-77
2022/05/12 07:03:09;;;;;;;9.40;6.18;;;;;;;19.31;47.08;96013.06;5031247;28;20025;-77
2022/05/12 07:05:34;;;;;;;8.55;6.00;;;;;;;19.39;46.07;96004.59;5035212;28;20021;-76
2022/05/12 07:08:00;;;;;;;11.13;6.38;;;;;;;19.33;45.98;96016.38;5039223;28;20060;-77
2022/05/12 07:10:26;;;;;;;9.43;5.70;;;;;;;19.41;46.56;96014.44;5038568;28;20047;-77
2022/05/12 07:12:52;;;;;;;11.27;6.15;;;;;;;19.62;46.53;96019.53;5032792;28;20030;-76
2022/05/12 07:15:17;;;;;;;8.88;5.90;;;;;;;19.66;46.23;96013.63;5038691;28;20032;-78
2022/05/12 07:17:44;;;;;;;8.88;6.00;;;;;;;19.75;46.05;96012.31;5035519;28;20029;-76
2022/05/12 07:28:26;;;;;;;8.85;5.30;;;;;;;19.67;45.59;96005.25;5041377;28;20044;-75
2022/05/12 07:31:00;;;;;;;7.35;5.57;;;;;;;19.81;45.37;96000.56;5034252;28;20029;-77
2022/05/12 07:33:30;;;;;;;5.80;4.80;;;;;;;19.43;45.70;95998.72;5038367;28;20029;-75
2022/05/12 07:35:55;;;;;;;10.02;4.65;;;;;;;19.63;45.90;96007.59;5043891;28;20182;-77
2022/05/12 07:38:21;;;;;;;8.27;5.35;;;;;;;19.82;45.76;96002.22;5036075;28;20059;-77
2022/05/12 07:40:46;;;;;;;8.63;4.68;;;;;;;19.96;45.23;96002.09;5040537;28;20481;-76
2022/05/12 07:43:12;;;;;;;5.95;4.72;;;;;;;20.05;44.72;95995.38;5039484;28;20029;-75
2022/05/12 07:45:37;;;;;;;8.23;5.05;;;;;;;20.18;43.88;95993.56;5039003;28;20500;-76
2022/05/12 07:48:03;;;;;;;8.30;4.80;;;;;;;20.23;43.74;95993.72;5039265;28;20029;-77
2022/05/12 07:50:28;;;;;;;9.95;4.63;;;;;;;20.43;44.77;95992.66;5035125;28;20025;-77
2022/05/12 07:52:57;;;;;;;8.63;5.53;;;;;;;19.96;45.49;95996.66;5041405;28;20658;-76
2022/05/12 07:55:22;;;;;;;6.53;5.10;;;;;;;19.74;46.71;95987.00;5041746;28;20244;-78
2022/05/12 07:57:48;;;;;;;8.45;5.85;;;;;;;19.67;46.36;95986.22;5019914;28;20155;-76
2022/05/12 08:00:14;;;;;;;8.93;5.35;;;;;;;19.69;46.74;95994.16;5035611;28;20036;-76
2022/05/12 08:02:39;;;;;;;9.88;5.30;;;;;;;19.64;46.00;95990.22;5036087;28;20041;-76
2022/05/12 08:05:05;;;;;;;7.00;5.38;;;;;;;19.73;46.74;95981.78;5043322;28;20032;-77
2022/05/12 08:07:31;;;;;;;9.60;5.05;;;;;;;20.07;46.24;95987.78;5042542;28;20049;-76
2022/05/12 08:09:58;;;;;;;8.73;4.55;;;;;;;20.32;45.20;95984.19;5014857;28;20038;-78
2022/05/12 08:12:26;;;;;;;11.95;4.88;;;;;;;20.51;44.38;95981.47;5013705;28;20476;-76
2022/05/12 08:14:52;;;;;;;7.88;4.93;;;;;;;20.65;43.70;95986.78;5016440;28;20683;-79
2022/05/12 08:17:17;;;;;;;10.25;4.72;;;;;;;20.83;42.82;95983.22;5036746;28;20032;-76
2022/05/12 08:19:43;;;;;;;11.50;5.20;;;;;;;20.97;44.46;95983.91;5034972;28;20403;-75
2022/05/12 08:22:08;;;;;;;8.43;4.80;;;;;;;21.11;42.85;95971.75;5038564;28;20486;-75
2022/05/12 08:24:33;;;;;;;10.38;4.82;;;;;;;21.07;42.91;95973.25;5039583;28;20025;-75
2022/05/12 08:26:59;;;;;;;7.10;4.47;;;;;;;21.17;43.19;95969.13;5039581;28;20037;-76
2022/05/12 08:29:25;;;;;;;8.43;5.05;;;;;;;21.30;43.50;95966.22;5017905;28;20045;-77
2022/05/12 08:31:50;;;;;;;9.65;5.30;;;;;;;21.40;42.41;95970.28;5036286;28;20487;-76
2022/05/12 08:34:16;;;;;;;7.25;5.43;;;;;;;21.40;42.42;95970.28;5020670;28;20036;-78
2022/05/12 08:36:41;;;;;;;8.98;4.63;;;;;;;21.51;42.24;95965.91;5037367;28;20032;-76
2022/05/12 08:39:07;;;;;;;9.95;4.82;;;;;;;21.66;42.34;95960.88;5040497;28;20415;-76
2022/05/12 08:41:51;;;;;;;6.55;4.95;;;;;;;21.78;42.79;95954.63;5036837;28;20415;-77
2022/05/12 08:44:20;;;;;;;11.85;5.07;;;;;;;21.88;41.66;95959.50;5034874;28;20045;-77
2022/05/12 08:46:56;;;;;;;7.43;4.30;;;;;;;21.96;40.22;95956.41;5001955;28;20021;-76
2022/05/12 08:49:29;;;;;;;7.20;4.80;;;;;;;21.97;39.47;95947.97;5037591;28;20033;-78
2022/05/12 08:52:20;;;;;;;7.43;4.88;;;;;;;22.09;39.84;95955.34;5042294;28;20116;-76
2022/05/12 08:55:02;;;;;;;5.47;4.22;;;;;;;22.20;38.19;95961.84;5041432;28;20063;-76
2022/05/12 08:57:38;;;;;;;11.02;4.15;;;;;;;22.19;36.97;95961.03;5037521;28;20037;-77
2022/05/12 09:00:09;;;;;;;5.55;3.90;;;;;;;22.28;37.22;95953.31;5021726;28;20514;-77
2022/05/12 09:03:04;;;;;;;10.80;4.53;;;;;;;22.34;36.89;95952.34;5038827;28;20052;-76
2022/05/12 09:05:32;;;;;;;7.25;3.47;;;;;;;22.48;36.02;95954.81;5032388;28;20029;-77
2022/05/12 09:08:03;;;;;;;6.03;3.90;;;;;;;22.51;35.25;95950.78;5016679;28;20174;-77
2022/05/12 09:11:04;;;;;;;5.88;4.20;;;;;;;22.58;34.65;95946.84;5038646;28;20433;-78
2022/05/12 09:13:50;;;;;;;4.20;3.22;;;;;;;22.57;35.66;95947.09;5039682;28;20427;-78
2022/05/12 09:16:23;;;;;;;6.70;3.60;;;;;;;22.60;34.65;95950.19;5037642;28;20033;-76
2022/05/12 09:18:48;;;;;;;4.15;3.42;;;;;;;22.68;35.09;95948.16;5038781;28;20439;-77
2022/05/12 09:21:16;;;;;;;5.88;3.60;;;;;;;22.70;34.01;95955.03;5041060;28;20487;-79
2022/05/12 09:23:41;;;;;;;7.85;3.90;;;;;;;22.76;34.05;95950.53;5020767;28;20108;-76
2022/05/12 09:26:32;;;;;;;11.18;3.85;;;;;;;22.77;34.30;95946.72;5037989;28;20551;-79
2022/05/12 09:29:26;;;;;;;4.90;3.33;;;;;;;22.88;34.91;95939.53;5039614;28;20049;-77
2022/05/12 09:32:16;;;;;;;7.72;3.80;;;;;;;22.97;34.54;95945.47;5030866;28;20695;-79
2022/05/12 09:34:43;;;;;;;6.00;3.50;;;;;;;22.98;33.26;95947.09;5037682;28;20040;-76
2022/05/12 09:37:28;;;;;;;4.80;3.40;;;;;;;22.96;33.72;95943.78;5041285;28;20511;-75
2022/05/12 09:40:35;;;;;;;7.38;3.90;;;;;;;22.96;34.63;95939.16;5021643;28;20033;-76
2022/05/12 09:43:03;;;;;;;4.75;3.50;;;;;;;23.07;34.52;95931.97;5022009;28;20500;-75
2022/05/12 09:45:36;;;;;;;5.88;3.78;;;;;;;23.23;35.59;95932.22;5004130;28;20056;-75
2022/05/12 09:48:09;;;;;;;6.90;3.60;;;;;;;23.19;33.89;95931.06;5041145;28;20032;-76
2022/05/12 09:50:34;;;;;;;8.45;3.85;;;;;;;23.27;33.78;95924.38;5038424;28;20090;-76
2022/05/12 09:53:01;;;;;;;4.00;3.60;;;;;;;23.36;35.72;95933.03;5018913;28;20487;-77
2022/05/12 09:55:31;;;;;;;4.95;3.80;;;;;;;23.42;32.54;95930.16;5023385;28;20040;-78
2022/05/12 09:58:01;;;;;;;6.35;3.55;;;;;;;23.32;33.13;95927.19;5033507;28;20020;-75
2022/05/12 10:00:33;;;;;;;7.18;4.07;;;;;;;23.31;33.79;95923.63;5038399;28;20168;-78
2022/05/12 10:09:20;;;;;;;9.32;4.40;;;;;;;23.56;34.04;95916.97;5043676;28;20043;-76
2022/05/12 10:11:48;;;;;;;5.03;3.70;;;;;;;23.60;32.26;95911.00;5045732;28;20041;-75
2022/05/12 10:14:31;;;;;;;3.90;3.47;;;;;;;23.55;32.94;95915.28;5041807;28;20032;-76
2022/05/12 10:16:56;;;;;;;5.20;2.85;;;;;;;23.58;31.05;95901.13;5044438;28;20118;-76
2022/05/12 10:19:22;;;;;;;4.72;3.35;;;;;;;23.51;30.32;95908.66;5009316;28;20037;-76
2022/05/12 10:21:56;;;;;;;6.07;3.30;;;;;;;23.62;31.21;95903.38;5023182;28;20084;-75
2022/05/12 10:24:31;;;;;;;6.60;3.20;;;;;;;23.68;30.35;95892.22;5041003;28;20036;-76
2022/05/12 10:27:02;;;;;;;3.33;2.47;;;;;;;23.65;28.32;95892.72;5045156;28;20044;-76
2022/05/12 10:30:00;;;;;;;4.80;2.17;;;;;;;23.65;27.45;95884.53;5025093;28;20045;-77
2022/05/12 10:32:50;;;;;;;4.25;2.50;;;;;;;23.67;27.26;95887.84;5037098;28;20013;-77
2022/05/12 10:35:32;;;;;;;8.85;3.50;;;;;;;23.70;27.61;95883.78;5036786;28;20029;-75
2022/05/12 10:38:33;;;;;;;5.85;2.65;;;;;;;23.64;27.60;95882.03;5042415;28;20518;-76
2022/05/12 10:41:29;;;;;;;3.60;2.45;;;;;;;23.65;27.93;95884.53;5022653;28;20029;-78
2022/05/12 10:43:54;;;;;;;7.65;2.90;;;;;;;23.62;28.45;95876.81;5040838;28;20041;-77
2022/05/12 10:47:01;;;;;;;4.53;2.88;;;;;;;23.68;29.60;95875.00;5044398;28;20029;-77
2022/05/12 10:49:44;;;;;;;8.38;2.92;;;;;;;23.78;28.77;95868.84;5039934;28;20056;-75
2022/05/12 10:52:12;;;;;;;3.15;2.40;;;;;;;23.86;28.14;95865.66;5039440;28;20040;-76
2022/05/12 10:54:38;;;;;;;4.57;2.72;;;;;;;23.90;27.61;95857.78;5037353;28;20028;-76
2022/05/12 10:57:06;;;;;;;3.78;2.50;;;;;;;23.94;29.02;95864.44;5043322;28;20033;-76
2022/05/12 11:00:03;;;;;;;7.28;3.13;;;;;;;24.05;28.44;95860.72;5040364;28;20606;-76
2022/05/12 11:02:35;;;;;;;5.80;2.83;;;;;;;24.12;28.16;95857.00;5044716;28;20055;-75
2022/05/12 11:05:27;;;;;;;10.10;2.90;;;;;;;24.22;28.30;95865.38;5042208;28;20055;-76
2022/05/12 11:08:16;;;;;;;3.75;2.60;;;;;;;24.39;29.17;95861.75;5034736;28;20048;-76
2022/05/12 11:10:56;;;;;;;3.90;2.50;;;;;;;24.47;27.26;95850.34;5026697;28;20040;-75
2022/05/12 11:13:32;;;;;;;3.83;2.80;;;;;;;24.43;27.04;95846.44;5023171;28;20047;-76
2022/05/12 11:16:00;;;;;;;4.15;2.58;;;;;;;24.40;27.94;95841.47;5020669;28;21002;-76
2022/05/12 11:18:38;;;;;;;4.55;2.67;;;;;;;24.47;30.31;95841.28;5034496;28;20249;-77
2022/05/12 11:21:08;;;;;;;4.20;2.78;;;;;;;24.55;27.91;95835.34;5038203;28;20045;-77
2022/05/12 11:24:04;;;;;;;5.65;2.50;;;;;;;24.70;28.24;95818.22;5039985;28;20511;-78
2022/05/12 11:26:38;;;;;;;5.28;3.03;;;;;;;24.86;29.00;95815.66;5034821;28;20041;-75
2022/05/12 11:29:48;;;;;;;7.13;2.90;;;;;;;24.93;28.74;95819.03;5035564;28;20357;-77
2022/05/12 11:32:38;;;;;;;4.30;2.92;;;;;;;24.94;28.35;95815.19;5041061;28;20810;-76
2022/05/12 11:35:25;;;;;;;5.03;2.90;;;;;;;24.98;28.92;95816.34;5040979;28;20526;-77
2022/05/12 11:37:55;;;;;;;3.53;2.70;;;;;;;25.12;29.23;95821.38;5042449;28;20551;-76
2022/05/12 11:40:43;;;;;;;5.15;3.17;;;;;;;25.24;28.66;95805.59;5041551;28;20126;-78
2022/05/12 11:46:17;;;;;;;4.40;2.80;;;;;;;25.12;27.86;95793.94;5026552;28;20114;-77
2022/05/12 11:48:57;;;;;;;4.75;2.83;;;;;;;25.13;27.12;95798.34;5040202;28;20056;-77
2022/05/12 11:51:48;;;;;;;3.90;2.55;;;;;;;25.17;28.32;95793.97;5042391;28;20029;-76
2022/05/12 11:54:27;;;;;;;4.65;2.60;;;;;;;25.24;26.95;95783.63;5027477;28;20072;-77
2022/05/12 11:56:57;;;;;;;6.57;2.83;;;;;;;25.33;27.62;95783.16;5026086;28;20040;-76
2022/05/12 11:59:30;;;;;;;5.63;2.70;;;;;;;25.50;28.26;95786.56;5039831;28;20029;-80
2022/05/12 12:02:06;;;;;;;4.35;3.00;;;;;;;25.55;26.51;95778.34;5045188;28;20067;-76
2022/05/12 12:04:47;;;;;;;4.10;3.00;;;;;;;25.60;26.14;95784.97;5040541;28;20025;-77